Grissom ARB Airport Peru US
ICAO: KGUS
IATA: GUS
Category: Large
Scheduled Services: No

Elevation: 812 ft
TransAlt. 18000 ft.

Airport Communications:
APP:121.05
ATIS:108.45
CLNC DEL:120
DEP:121.05
GND:128.425
PMSV METRO:34.46
PTD:37.22
TWR:133.7

KGUS Zoom In..

If you have problems with the map follow the link
https://www.worldairports.se/pages/airport.php?
ICAO=KGUS

Runways:

(A) RW 05 length 12501 ft width 200 ft
ILS 109.50 / hdg 46

(B) RW 23 length 12501 ft width 200 ft
ILS 109.50 / hdg 226

Location; KGUS
Day. 28 / Time. 13.56 Zulu
* Altimeter: 30.08
* Temperature: 00° c. 32°f.
* Wind from: 280° Speed 04 kn.
Dewpoint: 00° c.
Visibility: 2 m.
Clouds: Overcast 400 ft.
Conditions: Mist.

KGUS 281356Z 28004KT 2 1/4SM BR OVC004 00/00 A3008 RMK AO2A SLP198 T10041004 $


Wind From 280°
Speed 04 kn.

 
 
jpsmedia worldairports.se 2020   terms of use